createdAt,value
2018-12-17T16:54:23.441Z,93.76
2018-12-17T16:56:51.053Z,94.06
2018-12-17T16:59:18.634Z,94.30
2018-12-17T17:01:46.408Z,94.37
2018-12-17T17:04:13.987Z,94.21
2018-12-17T17:06:41.574Z,94.11
2018-12-17T17:09:09.510Z,93.76
2018-12-17T17:11:37.106Z,93.42
2018-12-17T17:14:04.790Z,93.19
2018-12-17T17:16:32.455Z,92.31
2018-12-17T17:19:00.096Z,91.71
2018-12-17T17:21:27.675Z,92.32
2018-12-17T17:23:56.472Z,92.21
2018-12-17T17:26:24.335Z,92.40
2018-12-17T17:28:51.926Z,92.70
2018-12-17T17:31:19.897Z,92.82
2018-12-17T17:33:47.490Z,92.71
2018-12-17T17:36:15.078Z,92.52
2018-12-17T17:38:42.694Z,91.51
2018-12-17T17:41:10.298Z,90.68
2018-12-17T17:43:37.884Z,91.02
2018-12-17T17:46:05.649Z,90.90
2018-12-17T17:48:33.222Z,91.55
2018-12-17T17:51:00.789Z,92.06
2018-12-17T17:53:28.412Z,91.09
2018-12-17T17:55:55.989Z,91.08
2018-12-17T17:58:23.579Z,90.56
2018-12-17T18:00:51.384Z,91.37
2018-12-17T18:03:18.982Z,91.60
2018-12-17T18:05:46.556Z,91.57
2018-12-17T18:08:14.375Z,91.70
2018-12-17T18:10:41.966Z,91.99
2018-12-17T18:13:10.191Z,92.40
2018-12-17T18:15:37.882Z,92.33
2018-12-17T18:18:05.501Z,92.31
2018-12-17T18:20:34.681Z,91.48
2018-12-17T18:23:02.377Z,91.82
2018-12-17T18:25:29.962Z,90.82
2018-12-17T18:27:57.544Z,90.61
2018-12-17T18:30:25.420Z,91.11
2018-12-17T18:32:53.057Z,91.04
2018-12-17T18:35:20.661Z,91.32
2018-12-17T18:37:48.303Z,90.75
2018-12-17T18:40:15.887Z,90.70
2018-12-17T18:42:43.509Z,90.96
2018-12-17T18:45:11.360Z,91.21
2018-12-17T18:47:39.508Z,91.63
2018-12-17T18:50:07.145Z,92.35
2018-12-17T18:52:34.785Z,92.68
2018-12-17T18:55:02.386Z,92.04
2018-12-17T18:57:29.960Z,91.53
2018-12-17T18:59:57.706Z,92.15
2018-12-17T19:02:25.291Z,92.59
2018-12-17T19:04:52.891Z,92.93
2018-12-17T19:07:20.870Z,93.48
2018-12-17T19:09:48.459Z,92.95
2018-12-17T19:12:16.038Z,93.10
2018-12-17T19:14:43.947Z,93.36
2018-12-17T19:17:11.550Z,93.21
2018-12-17T19:19:39.141Z,92.82
2018-12-17T19:22:06.868Z,91.91
2018-12-17T19:24:34.456Z,91.88
2018-12-17T19:27:02.046Z,91.94
2018-12-17T19:29:29.789Z,91.74
2018-12-17T19:31:57.378Z,91.88
2018-12-17T19:34:25.049Z,92.05
2018-12-17T19:36:53.011Z,92.46
2018-12-17T19:39:20.595Z,92.72
2018-12-17T19:41:48.200Z,92.40
2018-12-17T19:44:15.846Z,92.21
2018-12-17T19:46:43.427Z,92.43
2018-12-17T19:49:11.017Z,92.81
2018-12-17T19:51:38.675Z,92.69
2018-12-17T19:54:06.264Z,92.83
2018-12-17T19:56:33.830Z,93.08
2018-12-17T19:59:01.771Z,93.07
2018-12-17T20:01:29.399Z,92.93
2018-12-17T20:03:56.999Z,91.82
2018-12-17T20:06:24.714Z,91.87
2018-12-17T20:08:53.159Z,92.38
2018-12-17T20:11:19.958Z,93.18
2018-12-17T20:13:47.928Z,93.70
2018-12-17T20:16:15.528Z,94.05
2018-12-17T20:18:43.105Z,94.38
2018-12-17T20:24:10.124Z,94.04
2018-12-17T20:26:37.842Z,92.54
2018-12-17T20:29:05.433Z,91.80
2018-12-17T20:31:33.025Z,92.08
2018-12-17T20:34:00.640Z,92.18
2018-12-17T20:36:28.242Z,92.52
2018-12-17T20:38:55.826Z,92.83
2018-12-17T20:41:23.736Z,93.80
2018-12-17T20:43:51.413Z,94.71
2018-12-17T20:46:22.828Z,94.77
2018-12-17T20:48:50.726Z,94.98
2018-12-17T20:51:18.322Z,93.89
2018-12-17T20:53:45.923Z,93.64
2018-12-17T20:56:13.822Z,92.86
2018-12-17T20:58:41.419Z,92.67
2018-12-17T21:01:28.810Z,93.22
2018-12-17T21:03:56.398Z,93.07
2018-12-17T21:06:23.994Z,92.51
2018-12-17T21:08:51.823Z,91.94
2018-12-17T21:11:19.404Z,92.21
2018-12-17T21:13:47.028Z,92.30
2018-12-17T21:16:14.678Z,92.46
2018-12-17T21:18:42.289Z,92.34
2018-12-17T21:21:11.951Z,93.04
2018-12-17T21:23:39.715Z,93.43
2018-12-17T21:26:07.284Z,93.92
2018-12-17T21:28:34.866Z,94.61
2018-12-17T21:31:02.802Z,94.25
2018-12-17T21:33:30.402Z,93.78
2018-12-17T21:35:57.995Z,93.64
2018-12-17T21:38:25.829Z,93.88
2018-12-17T21:40:53.422Z,93.21
2018-12-17T21:43:21.000Z,93.32
2018-12-17T21:45:48.736Z,93.01
2018-12-17T21:48:16.310Z,93.93
2018-12-17T21:50:43.897Z,94.35
2018-12-17T21:53:11.642Z,94.13
2018-12-17T21:55:39.307Z,94.04
2018-12-17T21:58:06.905Z,94.27
2018-12-17T22:00:34.640Z,94.69
2018-12-17T22:03:02.237Z,94.83
2018-12-17T22:05:29.820Z,94.92
2018-12-17T22:07:57.725Z,94.78
2018-12-17T22:10:25.302Z,94.72
2018-12-17T22:12:52.964Z,94.32
2018-12-17T22:15:20.738Z,93.89
2018-12-17T22:17:48.314Z,94.49
2018-12-17T22:20:15.900Z,94.62
2018-12-17T22:22:43.801Z,95.25
2018-12-17T22:25:11.397Z,94.96
2018-12-17T22:27:38.981Z,94.74
2018-12-17T22:30:06.792Z,94.79
2018-12-17T22:32:34.407Z,95.32
2018-12-17T22:35:02.001Z,95.19
2018-12-17T22:37:29.959Z,95.13
2018-12-17T22:39:57.546Z,94.69
2018-12-17T22:42:25.134Z,94.21
2018-12-17T22:44:53.067Z,93.80
2018-12-17T22:47:20.649Z,94.13
2018-12-17T22:49:48.233Z,94.28
2018-12-17T22:52:15.968Z,94.66
2018-12-17T22:54:43.536Z,94.93
2018-12-17T22:57:11.137Z,95.26
2018-12-17T22:59:38.889Z,95.17
2018-12-17T23:02:06.484Z,95.14
2018-12-17T23:04:34.117Z,95.16
2018-12-17T23:07:01.763Z,95.41
2018-12-17T23:09:41.022Z,95.47
2018-12-17T23:12:20.514Z,95.17
2018-12-17T23:14:59.757Z,94.27
2018-12-17T23:17:39.461Z,94.13
2018-12-17T23:20:07.138Z,94.69
2018-12-17T23:22:34.754Z,94.19
2018-12-17T23:25:02.748Z,94.51
2018-12-17T23:27:30.330Z,94.52
2018-12-17T23:29:57.913Z,94.26
2018-12-17T23:32:25.802Z,94.08
2018-12-17T23:34:53.397Z,93.99
2018-12-17T23:37:20.982Z,93.99
2018-12-17T23:39:48.787Z,93.59
2018-12-17T23:42:16.389Z,93.40
2018-12-17T23:44:43.968Z,93.10
2018-12-17T23:47:11.692Z,92.99
2018-12-17T23:49:39.272Z,92.15
2018-12-17T23:52:06.881Z,91.24
2018-12-17T23:54:34.718Z,91.17
2018-12-17T23:57:02.344Z,91.04
2018-12-17T23:59:29.914Z,92.49
